Terminal Aerodrome Forecast
Issued by NWS Sterling, VA

Home | Current Version | Previous Version | Text Only | Print | Product List | Glossary On
Versions: 1 2 3 4 5 6 7 8 9 10 11 12 13 14 15 16 17 18 19 20 21 22 23 24
000
FTUS41 KLWX 072339
TAFBWI
TAF
KBWI 072339Z 0800/0906 03005KT P6SM OVC250
     FM081900 09006KT P6SM BKN045
     FM082200 10005KT P6SM OVC025
     FM090000 10007KT 2SM -RASN OVC015
     FM090300 09008KT 1SM -SN OVC008=

USA.gov is the U.S. government's official web portal to all federal, state and local government web resources and services.